createdAt,value
2023-05-06T04:30:46.800Z,15.70
2023-05-06T04:33:13.831Z,15.60
2023-05-06T04:35:41.142Z,15.60
2023-05-06T04:38:08.092Z,15.60
2023-05-06T04:40:36.629Z,15.50
2023-05-06T04:43:04.615Z,15.40
2023-05-06T04:45:34.373Z,15.40
2023-05-06T04:48:01.406Z,15.30
2023-05-06T04:50:28.600Z,15.30
2023-05-06T04:52:56.020Z,15.40
2023-05-06T04:55:23.098Z,15.30
2023-05-06T04:57:49.993Z,15.30
2023-05-06T05:00:17.430Z,15.40
2023-05-06T05:02:44.461Z,15.30
2023-05-06T05:05:11.606Z,15.30
2023-05-06T05:07:38.733Z,15.30
2023-05-06T05:10:06.096Z,15.40
2023-05-06T05:12:33.020Z,15.50
2023-05-06T05:14:59.926Z,15.50
2023-05-06T05:17:26.849Z,15.50
2023-05-06T05:19:53.789Z,15.50
2023-05-06T05:22:20.832Z,15.50
2023-05-06T05:24:47.820Z,15.50
2023-05-06T05:27:14.730Z,15.50
2023-05-06T05:29:41.604Z,15.50
2023-05-06T05:32:08.549Z,15.50
2023-05-06T05:34:35.497Z,15.40
2023-05-06T05:37:02.418Z,15.40
2023-05-06T05:39:29.379Z,15.50
2023-05-06T05:41:56.348Z,15.60
2023-05-06T05:44:23.363Z,15.60
2023-05-06T05:46:50.719Z,15.60
2023-05-06T05:49:17.708Z,15.70
2023-05-06T05:51:44.652Z,15.80
2023-05-06T05:54:11.563Z,15.80
2023-05-06T05:56:38.442Z,15.90
2023-05-06T05:59:06.041Z,15.90
2023-05-06T06:01:33.004Z,16.00
2023-05-06T06:04:00.168Z,16.00
2023-05-06T06:06:27.320Z,16.10
2023-05-06T06:08:54.270Z,16.20
2023-05-06T06:11:21.465Z,16.20
2023-05-06T06:13:48.445Z,16.30
2023-05-06T06:16:15.395Z,16.30
2023-05-06T06:18:43.604Z,16.40
2023-05-06T06:21:10.992Z,16.40
2023-05-06T06:23:37.974Z,16.50
2023-05-06T06:26:05.032Z,16.50
2023-05-06T06:28:31.955Z,16.60
2023-05-06T06:30:59.022Z,16.60
2023-05-06T06:33:25.926Z,16.70
2023-05-06T06:35:52.976Z,16.70
2023-05-06T06:38:20.039Z,16.80
2023-05-06T06:40:46.986Z,16.90
2023-05-06T06:43:13.954Z,16.90
2023-05-06T06:45:42.151Z,17.10
2023-05-06T06:48:09.391Z,17.00
2023-05-06T06:50:36.364Z,17.10
2023-05-06T06:53:04.872Z,17.10
2023-05-06T06:55:33.300Z,17.20
2023-05-06T06:58:00.250Z,17.20
2023-05-06T07:00:27.227Z,17.30
2023-05-06T07:02:54.488Z,17.30
2023-05-06T07:05:21.446Z,17.40
2023-05-06T07:07:48.321Z,17.50
2023-05-06T07:10:15.319Z,17.50
2023-05-06T07:12:42.323Z,17.60
2023-05-06T07:15:09.750Z,17.60
2023-05-06T07:17:36.937Z,17.70
2023-05-06T07:20:04.112Z,17.70
2023-05-06T07:22:31.085Z,17.80
2023-05-06T07:24:58.051Z,17.80
2023-05-06T07:27:25.206Z,17.90
2023-05-06T07:29:52.243Z,18.00
2023-05-06T07:32:19.318Z,18.10
2023-05-06T07:34:46.226Z,18.10
2023-05-06T07:37:13.153Z,18.10
2023-05-06T07:39:40.405Z,18.10
2023-05-06T07:42:08.044Z,18.20
2023-05-06T07:44:36.257Z,18.20
2023-05-06T07:47:03.841Z,18.20
2023-05-06T07:49:33.282Z,18.30
2023-05-06T07:52:00.502Z,18.40
2023-05-06T07:54:27.584Z,18.30
2023-05-06T07:56:54.530Z,18.30
2023-05-06T07:59:21.908Z,18.30
2023-05-06T08:01:48.845Z,18.30
2023-05-06T08:04:15.870Z,18.50
2023-05-06T08:06:42.814Z,18.50
2023-05-06T08:09:11.377Z,18.50
2023-05-06T08:11:39.941Z,18.50
2023-05-06T08:14:06.973Z,18.70
2023-05-06T08:16:33.964Z,18.60
2023-05-06T08:19:00.895Z,18.60
2023-05-06T08:21:27.855Z,18.70
2023-05-06T08:23:55.192Z,18.70
2023-05-06T08:26:22.125Z,18.70
2023-05-06T08:28:49.038Z,18.70
2023-05-06T08:31:16.055Z,18.70
2023-05-06T08:33:43.024Z,18.80
2023-05-06T08:36:09.945Z,18.80
2023-05-06T08:38:36.924Z,18.80
2023-05-06T08:41:08.858Z,18.90
2023-05-06T08:43:40.875Z,18.90
2023-05-06T08:46:07.937Z,18.90
2023-05-06T08:48:35.030Z,18.90
2023-05-06T08:51:03.470Z,18.90
2023-05-06T08:53:31.002Z,18.90
2023-05-06T08:55:57.958Z,19.00
2023-05-06T08:58:26.112Z,19.00
2023-05-06T09:00:53.186Z,19.10
2023-05-06T09:03:20.307Z,19.10
2023-05-06T09:05:47.276Z,19.20
2023-05-06T09:08:15.778Z,19.20
2023-05-06T09:10:44.007Z,19.40
2023-05-06T09:13:12.380Z,19.40
2023-05-06T09:15:40.018Z,19.40
2023-05-06T09:18:07.036Z,19.50
2023-05-06T09:20:34.926Z,19.50
2023-05-06T09:23:02.599Z,19.60
2023-05-06T09:25:29.501Z,19.60
2023-05-06T09:28:06.315Z,19.70
2023-05-06T09:30:33.490Z,19.70
2023-05-06T09:33:03.620Z,19.80
2023-05-06T09:35:36.081Z,19.80
2023-05-06T09:38:04.289Z,19.80
2023-05-06T09:40:32.977Z,19.90
2023-05-06T09:43:00.254Z,19.90
2023-05-06T09:45:28.380Z,20.00
2023-05-06T09:47:55.792Z,20.10
2023-05-06T09:50:23.427Z,20.10
2023-05-06T09:52:50.938Z,20.10
2023-05-06T09:55:21.885Z,20.20
2023-05-06T09:57:49.448Z,20.20
2023-05-06T10:00:17.079Z,20.20
2023-05-06T10:02:45.083Z,20.30
2023-05-06T10:05:13.137Z,20.30
2023-05-06T10:07:41.931Z,20.30
2023-05-06T10:10:10.162Z,20.40
2023-05-06T10:12:37.277Z,20.40
2023-05-06T10:15:04.926Z,20.40
2023-05-06T10:17:32.580Z,20.50
2023-05-06T10:20:00.701Z,20.50
2023-05-06T10:22:27.681Z,20.50
2023-05-06T10:25:05.683Z,20.50
2023-05-06T10:27:34.496Z,20.50
2023-05-06T10:30:01.440Z,20.50
2023-05-06T10:32:31.416Z,20.60
2023-05-06T10:35:04.193Z,20.60
2023-05-06T10:37:32.844Z,20.60
2023-05-06T10:39:59.875Z,20.70
2023-05-06T10:42:27.538Z,20.70
2023-05-06T10:44:57.271Z,20.70
2023-05-06T10:47:24.382Z,20.80
2023-05-06T10:50:09.866Z,21.00
2023-05-06T10:52:46.168Z,20.90
2023-05-06T10:55:24.996Z,20.90
2023-05-06T10:57:54.520Z,20.90
2023-05-06T11:00:21.705Z,20.90
2023-05-06T11:02:57.043Z,21.00
2023-05-06T11:05:24.163Z,21.00
2023-05-06T11:07:52.307Z,21.10
2023-05-06T11:10:31.985Z,21.10
2023-05-06T11:13:00.314Z,21.10
2023-05-06T11:15:38.104Z,21.10
2023-05-06T11:18:23.780Z,21.20
2023-05-06T11:21:02.821Z,21.20
2023-05-06T11:23:42.822Z,21.20
2023-05-06T11:26:10.317Z,21.20
2023-05-06T11:28:37.607Z,21.30
2023-05-06T11:31:04.748Z,21.30
2023-05-06T11:33:33.096Z,21.30
2023-05-06T11:36:00.572Z,21.30
2023-05-06T11:38:40.509Z,21.40
2023-05-06T11:41:07.463Z,21.40
2023-05-06T11:43:34.536Z,21.40
2023-05-06T11:46:01.638Z,21.50
2023-05-06T11:48:28.547Z,21.50
2023-05-06T11:50:58.156Z,21.50
2023-05-06T11:53:25.183Z,21.60
2023-05-06T11:55:53.214Z,21.60
2023-05-06T11:58:24.202Z,21.60
2023-05-06T12:00:57.742Z,21.70
2023-05-06T12:03:25.561Z,21.70
2023-05-06T12:05:52.660Z,21.70
2023-05-06T12:08:27.949Z,21.70
2023-05-06T12:10:57.677Z,21.70
2023-05-06T12:13:24.697Z,21.80
2023-05-06T12:15:53.663Z,21.80
2023-05-06T12:18:20.814Z,21.80
2023-05-06T12:20:47.824Z,21.80
2023-05-06T12:23:15.895Z,21.80
2023-05-06T12:25:44.631Z,21.90
2023-05-06T12:28:18.247Z,21.90
2023-05-06T12:30:45.794Z,22.00
2023-05-06T12:33:12.875Z,22.10
2023-05-06T12:35:40.562Z,22.10
2023-05-06T12:38:11.862Z,22.30
2023-05-06T12:40:39.415Z,22.20
2023-05-06T12:43:06.558Z,22.20
2023-05-06T12:45:33.601Z,22.20
2023-05-06T12:48:02.194Z,22.20
2023-05-06T12:50:33.805Z,22.30
2023-05-06T12:53:01.209Z,22.30
2023-05-06T12:55:29.709Z,22.30
2023-05-06T12:57:57.963Z,22.30
2023-05-06T13:00:25.100Z,22.40
2023-05-06T13:02:52.225Z,22.40
2023-05-06T13:05:19.348Z,22.40
2023-05-06T13:07:46.280Z,22.40
2023-05-06T13:10:13.330Z,22.40
2023-05-06T13:12:40.648Z,22.40
2023-05-06T13:15:08.610Z,22.50
2023-05-06T13:17:35.640Z,22.50
2023-05-06T13:20:05.067Z,22.50
2023-05-06T13:22:40.332Z,22.50
2023-05-06T13:25:14.136Z,22.50
2023-05-06T13:27:41.059Z,22.60
2023-05-06T13:30:08.901Z,22.60
2023-05-06T13:32:36.032Z,22.60
2023-05-06T13:35:03.068Z,22.70
2023-05-06T13:37:29.978Z,22.70
2023-05-06T13:39:57.574Z,22.80
2023-05-06T13:42:24.500Z,22.80
2023-05-06T13:44:51.487Z,22.80
2023-05-06T13:47:18.444Z,22.80
2023-05-06T13:49:45.656Z,22.90
2023-05-06T13:52:12.650Z,23.00
2023-05-06T13:54:39.632Z,22.90
2023-05-06T13:57:06.618Z,22.90
2023-05-06T13:59:33.569Z,22.90
2023-05-06T14:02:01.116Z,22.90
2023-05-06T14:04:28.249Z,22.90
2023-05-06T14:06:55.913Z,23.00
2023-05-06T14:09:22.795Z,22.90
2023-05-06T14:11:49.743Z,23.00
2023-05-06T14:14:16.675Z,23.00
2023-05-06T14:16:43.654Z,23.00
2023-05-06T14:19:10.667Z,23.00
2023-05-06T14:21:37.542Z,23.00
2023-05-06T14:24:06.889Z,23.10
2023-05-06T14:26:34.705Z,23.00
2023-05-06T14:29:01.671Z,23.00
2023-05-06T14:31:29.552Z,23.00
2023-05-06T14:33:56.530Z,23.00
2023-05-06T14:36:23.465Z,23.00
2023-05-06T14:38:50.410Z,23.00
2023-05-06T14:41:17.365Z,23.00
2023-05-06T14:43:44.248Z,23.00
2023-05-06T14:46:11.241Z,23.00
2023-05-06T14:48:38.222Z,23.00
2023-05-06T14:51:05.173Z,23.00
2023-05-06T14:53:32.116Z,23.00
2023-05-06T14:55:59.020Z,23.00
2023-05-06T14:58:26.407Z,23.00
2023-05-06T15:00:53.454Z,23.00
2023-05-06T15:03:20.394Z,23.00
2023-05-06T15:05:47.377Z,23.00
2023-05-06T15:08:14.301Z,23.00
2023-05-06T15:10:41.769Z,23.10
2023-05-06T15:13:08.988Z,23.10
2023-05-06T15:15:35.962Z,23.10
2023-05-06T15:18:03.012Z,23.10
2023-05-06T15:20:30.768Z,23.10
2023-05-06T15:22:57.971Z,23.10
2023-05-06T15:25:34.819Z,23.20
2023-05-06T15:28:02.921Z,23.20
2023-05-06T15:30:29.817Z,23.20
2023-05-06T15:32:56.806Z,23.20
2023-05-06T15:35:23.760Z,23.20
2023-05-06T15:37:55.357Z,23.10
2023-05-06T15:40:25.421Z,23.10
2023-05-06T15:42:52.456Z,23.10
2023-05-06T15:45:19.616Z,23.10
2023-05-06T15:47:48.196Z,23.00
2023-05-06T15:50:31.046Z,23.10
2023-05-06T15:53:01.014Z,23.10
2023-05-06T15:55:28.095Z,23.10
2023-05-06T15:57:55.062Z,23.10
2023-05-06T16:00:22.081Z,23.20
2023-05-06T16:02:49.274Z,23.20
2023-05-06T16:05:16.596Z,23.10
2023-05-06T16:07:43.574Z,23.10
2023-05-06T16:10:10.767Z,23.20
2023-05-06T16:12:38.011Z,23.20
2023-05-06T16:15:05.248Z,23.10
2023-05-06T16:17:37.323Z,23.20
2023-05-06T16:20:05.073Z,23.20
2023-05-06T16:22:32.135Z,23.20
2023-05-06T16:24:59.050Z,23.10
2023-05-06T16:27:28.086Z,23.20
2023-05-06T16:29:55.531Z,23.20
2023-05-06T16:32:22.964Z,23.20
2023-05-06T16:34:49.934Z,23.20
2023-05-06T16:37:16.884Z,23.20
2023-05-06T16:39:43.756Z,23.20
2023-05-06T16:42:10.704Z,23.20
2023-05-06T16:44:37.610Z,23.20
2023-05-06T16:47:04.764Z,23.40
2023-05-06T16:49:33.471Z,23.10
2023-05-06T16:52:00.713Z,23.20
2023-05-06T16:54:27.622Z,23.10
2023-05-06T16:56:54.858Z,23.20
2023-05-06T16:59:22.577Z,23.10
2023-05-06T17:01:50.075Z,23.20
2023-05-06T17:04:17.022Z,23.10
2023-05-06T17:06:44.263Z,23.20
2023-05-06T17:09:11.243Z,23.20
2023-05-06T17:11:38.272Z,23.10
2023-05-06T17:14:05.201Z,23.20
2023-05-06T17:16:32.197Z,23.20
2023-05-06T17:19:00.461Z,23.30
2023-05-06T17:21:27.788Z,23.20
2023-05-06T17:23:55.094Z,23.20
2023-05-06T17:26:22.038Z,23.20
2023-05-06T17:28:50.747Z,23.20
2023-05-06T17:31:17.991Z,23.20
2023-05-06T17:33:45.149Z,23.20
2023-05-06T17:36:12.829Z,23.20
2023-05-06T17:38:39.792Z,23.20
2023-05-06T17:41:06.794Z,23.30
2023-05-06T17:43:34.144Z,23.20
2023-05-06T17:46:01.713Z,23.20
2023-05-06T17:48:28.661Z,23.20
2023-05-06T17:51:02.144Z,23.20
2023-05-06T17:53:29.411Z,23.20
2023-05-06T17:55:56.354Z,23.10
2023-05-06T17:58:23.298Z,23.10
2023-05-06T18:00:50.228Z,23.10
2023-05-06T18:03:17.206Z,23.10
2023-05-06T18:05:44.174Z,23.10
2023-05-06T18:08:11.101Z,23.10
2023-05-06T18:10:38.108Z,23.00
2023-05-06T18:13:05.666Z,23.00
2023-05-06T18:15:32.624Z,23.00
2023-05-06T18:17:59.587Z,23.00
2023-05-06T18:20:26.768Z,22.90
2023-05-06T18:22:53.698Z,22.80
2023-05-06T18:25:20.895Z,22.80
2023-05-06T18:27:48.212Z,22.80
2023-05-06T18:30:15.841Z,22.90
2023-05-06T18:32:42.753Z,22.70
2023-05-06T18:35:10.989Z,22.70
2023-05-06T18:37:38.531Z,22.60
2023-05-06T18:40:06.096Z,22.60
2023-05-06T18:42:33.961Z,22.60
2023-05-06T18:45:06.953Z,22.60
2023-05-06T18:47:34.058Z,22.50
2023-05-06T18:50:01.120Z,22.50
2023-05-06T18:52:28.081Z,22.40
2023-05-06T18:54:55.049Z,22.40
2023-05-06T18:57:22.437Z,22.40
2023-05-06T18:59:49.388Z,22.30
2023-05-06T19:02:16.364Z,22.30
2023-05-06T19:04:43.592Z,22.30
2023-05-06T19:07:11.129Z,22.30
2023-05-06T19:09:38.629Z,22.20
2023-05-06T19:12:05.626Z,22.20
2023-05-06T19:14:34.487Z,22.20
2023-05-06T19:17:02.739Z,22.10
2023-05-06T19:19:29.851Z,22.10
2023-05-06T19:21:57.409Z,22.20
2023-05-06T19:24:24.365Z,22.00
2023-05-06T19:26:51.363Z,22.00
2023-05-06T19:29:18.238Z,22.00
2023-05-06T19:31:45.140Z,21.90
2023-05-06T19:34:12.013Z,21.90
2023-05-06T19:36:39.027Z,21.90
2023-05-06T19:39:06.062Z,21.90
2023-05-06T19:41:33.549Z,21.90
2023-05-06T19:44:00.490Z,21.80
2023-05-06T19:46:27.477Z,21.80
2023-05-06T19:48:54.424Z,21.70
2023-05-06T19:51:21.326Z,21.70
2023-05-06T19:53:48.934Z,21.70
2023-05-06T19:56:17.140Z,21.60
2023-05-06T19:58:44.355Z,21.60
2023-05-06T20:01:11.556Z,21.50
2023-05-06T20:03:38.876Z,21.50
2023-05-06T20:06:06.351Z,21.50
2023-05-06T20:08:33.337Z,21.50
2023-05-06T20:11:00.437Z,21.40
2023-05-06T20:13:27.466Z,21.40
2023-05-06T20:15:54.802Z,21.30
2023-05-06T20:18:22.729Z,21.30
2023-05-06T20:20:49.707Z,21.30
2023-05-06T20:23:16.678Z,21.30
2023-05-06T20:25:43.683Z,21.20
2023-05-06T20:28:10.904Z,21.20
2023-05-06T20:30:38.563Z,21.10
2023-05-06T20:33:05.840Z,21.30
2023-05-06T20:35:37.883Z,21.10
2023-05-06T20:38:05.104Z,21.10
2023-05-06T20:40:33.332Z,21.00
2023-05-06T20:43:00.243Z,21.00
2023-05-06T20:45:27.654Z,20.90
2023-05-06T20:47:54.982Z,20.90
2023-05-06T20:50:21.918Z,20.90
2023-05-06T20:52:49.176Z,20.90
2023-05-06T20:55:16.401Z,20.80
2023-05-06T20:57:43.997Z,20.70
2023-05-06T21:00:11.616Z,20.70
2023-05-06T21:02:41.457Z,20.70
2023-05-06T21:05:09.436Z,20.70
2023-05-06T21:07:36.582Z,20.60
2023-05-06T21:10:05.566Z,20.60
2023-05-06T21:12:33.242Z,20.60
2023-05-06T21:15:00.830Z,20.50
2023-05-06T21:17:28.384Z,20.50
2023-05-06T21:19:55.456Z,20.50
2023-05-06T21:22:22.974Z,20.50
2023-05-06T21:24:50.649Z,20.50
2023-05-06T21:27:17.820Z,20.50
2023-05-06T21:29:44.810Z,20.50
2023-05-06T21:32:11.814Z,20.40
2023-05-06T21:34:38.812Z,20.40
2023-05-06T21:37:05.760Z,20.30
2023-05-06T21:39:32.671Z,20.30
2023-05-06T21:41:59.643Z,20.30
2023-05-06T21:44:26.623Z,20.30
2023-05-06T21:46:53.578Z,20.20
2023-05-06T21:49:22.099Z,20.20
2023-05-06T21:51:49.200Z,20.20
2023-05-06T21:54:17.134Z,20.10
2023-05-06T21:56:44.528Z,20.10
2023-05-06T21:59:11.498Z,20.10
2023-05-06T22:01:38.646Z,20.00
2023-05-06T22:04:10.990Z,20.00
2023-05-06T22:06:38.833Z,19.90
2023-05-06T22:09:09.100Z,19.90
2023-05-06T22:11:37.608Z,19.90
2023-05-06T22:14:05.931Z,19.90
2023-05-06T22:16:33.973Z,19.80
2023-05-06T22:19:02.056Z,19.80
2023-05-06T22:21:30.172Z,19.70
2023-05-06T22:23:57.228Z,19.70
2023-05-06T22:26:24.387Z,19.70
2023-05-06T22:28:51.720Z,19.70
2023-05-06T22:31:20.527Z,19.60
2023-05-06T22:33:47.664Z,19.60
2023-05-06T22:36:14.605Z,19.60
2023-05-06T22:38:41.546Z,19.60
2023-05-06T22:41:08.508Z,19.60
2023-05-06T22:43:35.436Z,19.60
2023-05-06T22:46:02.398Z,19.50
2023-05-06T22:48:31.529Z,19.50
2023-05-06T22:50:58.433Z,19.50
2023-05-06T22:53:25.881Z,19.50
2023-05-06T22:55:52.840Z,19.50
2023-05-06T22:58:19.933Z,19.50
2023-05-06T23:00:47.913Z,19.50
2023-05-06T23:03:15.608Z,19.40
2023-05-06T23:05:42.532Z,19.40
2023-05-06T23:08:09.635Z,19.50
2023-05-06T23:10:36.654Z,19.30
2023-05-06T23:13:03.652Z,19.30
2023-05-06T23:15:30.915Z,19.20
2023-05-06T23:17:57.935Z,19.20
2023-05-06T23:20:24.899Z,19.20
2023-05-06T23:22:51.822Z,19.20
2023-05-06T23:25:18.804Z,19.40
2023-05-06T23:27:45.719Z,19.20
